sensor_id;sensor_type;location;lat;lon;timestamp;temperature;humidity
3416;DHT22;1721;51.238;9.562;2023-05-15T00:02:25;11.90;95.20
3416;DHT22;1721;51.238;9.562;2023-05-15T00:04:51;11.80;95.10
3416;DHT22;1721;51.238;9.562;2023-05-15T00:07:16;11.80;95.10
3416;DHT22;1721;51.238;9.562;2023-05-15T00:09:42;11.80;95.00
3416;DHT22;1721;51.238;9.562;2023-05-15T00:12:07;11.80;95.10
3416;DHT22;1721;51.238;9.562;2023-05-15T00:14:33;11.70;95.20
3416;DHT22;1721;51.238;9.562;2023-05-15T00:16:59;11.70;95.10
3416;DHT22;1721;51.238;9.562;2023-05-15T00:19:24;11.70;95.10
3416;DHT22;1721;51.238;9.562;2023-05-15T00:21:50;11.70;95.00
3416;DHT22;1721;51.238;9.562;2023-05-15T00:24:15;11.70;94.90
3416;DHT22;1721;51.238;9.562;2023-05-15T00:26:41;11.50;94.80
3416;DHT22;1721;51.238;9.562;2023-05-15T00:29:07;11.40;95.50
3416;DHT22;1721;51.238;9.562;2023-05-15T00:31:32;11.30;95.80
3416;DHT22;1721;51.238;9.562;2023-05-15T00:33:58;11.30;96.00
3416;DHT22;1721;51.238;9.562;2023-05-15T00:36:24;11.30;95.90
3416;DHT22;1721;51.238;9.562;2023-05-15T00:38:50;11.40;95.70
3416;DHT22;1721;51.238;9.562;2023-05-15T00:41:17;11.30;96.00
3416;DHT22;1721;51.238;9.562;2023-05-15T00:43:42;11.30;95.80
3416;DHT22;1721;51.238;9.562;2023-05-15T00:46:09;11.40;95.60
3416;DHT22;1721;51.238;9.562;2023-05-15T00:48:37;11.40;95.30
3416;DHT22;1721;51.238;9.562;2023-05-15T00:51:03;11.50;95.30
3416;DHT22;1721;51.238;9.562;2023-05-15T00:53:29;11.50;95.20
3416;DHT22;1721;51.238;9.562;2023-05-15T00:55:57;11.40;95.20
3416;DHT22;1721;51.238;9.562;2023-05-15T00:58:23;11.50;95.20
3416;DHT22;1721;51.238;9.562;2023-05-15T01:00:52;11.40;95.00
3416;DHT22;1721;51.238;9.562;2023-05-15T01:03:17;11.40;95.00
3416;DHT22;1721;51.238;9.562;2023-05-15T01:05:43;11.40;94.90
3416;DHT22;1721;51.238;9.562;2023-05-15T01:08:22;11.30;94.90
3416;DHT22;1721;51.238;9.562;2023-05-15T01:10:50;11.30;94.90
3416;DHT22;1721;51.238;9.562;2023-05-15T01:13:19;11.30;94.90
3416;DHT22;1721;51.238;9.562;2023-05-15T01:15:46;11.30;95.30
3416;DHT22;1721;51.238;9.562;2023-05-15T01:18:11;11.30;94.90
3416;DHT22;1721;51.238;9.562;2023-05-15T01:20:49;11.20;95.00
3416;DHT22;1721;51.238;9.562;2023-05-15T01:23:37;11.20;94.90
3416;DHT22;1721;51.238;9.562;2023-05-15T01:26:20;11.10;95.20
3416;DHT22;1721;51.238;9.562;2023-05-15T01:28:57;11.10;95.30
3416;DHT22;1721;51.238;9.562;2023-05-15T01:31:25;11.10;95.30
3416;DHT22;1721;51.238;9.562;2023-05-15T01:33:58;11.10;95.10
3416;DHT22;1721;51.238;9.562;2023-05-15T01:36:38;11.10;95.00
3416;DHT22;1721;51.238;9.562;2023-05-15T01:39:07;11.10;95.10
3416;DHT22;1721;51.238;9.562;2023-05-15T01:44:21;11.10;95.20
3416;DHT22;1721;51.238;9.562;2023-05-15T01:46:51;11.10;95.30
3416;DHT22;1721;51.238;9.562;2023-05-15T01:49:18;11.10;95.20
3416;DHT22;1721;51.238;9.562;2023-05-15T01:51:49;11.10;95.20
3416;DHT22;1721;51.238;9.562;2023-05-15T01:54:17;11.10;95.10
3416;DHT22;1721;51.238;9.562;2023-05-15T01:56:44;11.00;95.10
3416;DHT22;1721;51.238;9.562;2023-05-15T01:59:12;11.10;95.10
3416;DHT22;1721;51.238;9.562;2023-05-15T02:01:38;11.10;95.20
3416;DHT22;1721;51.238;9.562;2023-05-15T02:04:05;11.00;95.00
3416;DHT22;1721;51.238;9.562;2023-05-15T02:06:31;11.00;95.20
3416;DHT22;1721;51.238;9.562;2023-05-15T02:09:01;11.00;95.20
3416;DHT22;1721;51.238;9.562;2023-05-15T02:11:27;11.00;95.30
3416;DHT22;1721;51.238;9.562;2023-05-15T02:13:54;10.90;95.20
3416;DHT22;1721;51.238;9.562;2023-05-15T02:16:21;10.90;95.20
3416;DHT22;1721;51.238;9.562;2023-05-15T02:18:47;10.90;95.30
3416;DHT22;1721;51.238;9.562;2023-05-15T02:21:13;10.90;95.30
3416;DHT22;1721;51.238;9.562;2023-05-15T02:23:38;10.90;95.40
3416;DHT22;1721;51.238;9.562;2023-05-15T02:31:48;10.90;95.50
3416;DHT22;1721;51.238;9.562;2023-05-15T02:34:54;10.90;95.50
3416;DHT22;1721;51.238;9.562;2023-05-15T02:37:27;10.90;95.50
3416;DHT22;1721;51.238;9.562;2023-05-15T02:39:55;10.70;95.80
3416;DHT22;1721;51.238;9.562;2023-05-15T02:42:25;10.70;96.20
3416;DHT22;1721;51.238;9.562;2023-05-15T02:44:52;10.80;96.50
3416;DHT22;1721;51.238;9.562;2023-05-15T02:47:20;10.80;96.30
3416;DHT22;1721;51.238;9.562;2023-05-15T02:49:46;10.90;96.00
3416;DHT22;1721;51.238;9.562;2023-05-15T02:52:12;11.00;95.80
3416;DHT22;1721;51.238;9.562;2023-05-15T02:54:38;11.10;95.70
3416;DHT22;1721;51.238;9.562;2023-05-15T02:57:03;11.00;95.60
3416;DHT22;1721;51.238;9.562;2023-05-15T02:59:29;11.00;95.70
3416;DHT22;1721;51.238;9.562;2023-05-15T03:01:55;11.00;95.70
3416;DHT22;1721;51.238;9.562;2023-05-15T03:04:20;11.10;95.70
3416;DHT22;1721;51.238;9.562;2023-05-15T03:06:46;11.10;95.50
3416;DHT22;1721;51.238;9.562;2023-05-15T03:09:12;11.10;95.40
3416;DHT22;1721;51.238;9.562;2023-05-15T03:11:37;11.10;95.60
3416;DHT22;1721;51.238;9.562;2023-05-15T03:14:03;10.80;95.90
3416;DHT22;1721;51.238;9.562;2023-05-15T03:16:28;10.70;96.70
3416;DHT22;1721;51.238;9.562;2023-05-15T03:18:54;10.80;96.80
3416;DHT22;1721;51.238;9.562;2023-05-15T03:21:19;10.90;96.60
3416;DHT22;1721;51.238;9.562;2023-05-15T03:23:45;11.00;96.50
3416;DHT22;1721;51.238;9.562;2023-05-15T03:26:10;11.00;96.30
3416;DHT22;1721;51.238;9.562;2023-05-15T03:28:36;11.10;96.60
3416;DHT22;1721;51.238;9.562;2023-05-15T03:31:02;11.20;96.70
3416;DHT22;1721;51.238;9.562;2023-05-15T03:33:29;11.20;96.50
3416;DHT22;1721;51.238;9.562;2023-05-15T03:35:55;11.30;96.70
3416;DHT22;1721;51.238;9.562;2023-05-15T03:38:21;11.40;96.70
3416;DHT22;1721;51.238;9.562;2023-05-15T03:40:46;11.40;96.90
3416;DHT22;1721;51.238;9.562;2023-05-15T03:43:12;11.50;96.80
3416;DHT22;1721;51.238;9.562;2023-05-15T03:45:38;11.40;97.00
3416;DHT22;1721;51.238;9.562;2023-05-15T03:48:04;11.50;97.20
3416;DHT22;1721;51.238;9.562;2023-05-15T03:50:30;11.60;97.00
3416;DHT22;1721;51.238;9.562;2023-05-15T03:52:55;11.60;96.80
3416;DHT22;1721;51.238;9.562;2023-05-15T03:55:21;11.70;96.80
3416;DHT22;1721;51.238;9.562;2023-05-15T03:57:47;11.70;96.60
3416;DHT22;1721;51.238;9.562;2023-05-15T04:00:12;11.70;97.10
3416;DHT22;1721;51.238;9.562;2023-05-15T04:02:38;11.80;97.00
3416;DHT22;1721;51.238;9.562;2023-05-15T04:05:06;12.00;97.10
3416;DHT22;1721;51.238;9.562;2023-05-15T04:07:33;12.10;97.00
3416;DHT22;1721;51.238;9.562;2023-05-15T04:09:59;12.20;96.90
3416;DHT22;1721;51.238;9.562;2023-05-15T04:12:28;12.40;96.80
3416;DHT22;1721;51.238;9.562;2023-05-15T04:14:55;12.50;96.80
3416;DHT22;1721;51.238;9.562;2023-05-15T04:17:21;12.50;96.80
3416;DHT22;1721;51.238;9.562;2023-05-15T04:19:46;12.60;96.80
3416;DHT22;1721;51.238;9.562;2023-05-15T04:22:12;12.70;96.70
3416;DHT22;1721;51.238;9.562;2023-05-15T04:24:38;12.70;96.70
3416;DHT22;1721;51.238;9.562;2023-05-15T04:27:04;12.80;96.70
3416;DHT22;1721;51.238;9.562;2023-05-15T04:29:29;12.80;96.70
3416;DHT22;1721;51.238;9.562;2023-05-15T04:31:55;12.90;96.90
3416;DHT22;1721;51.238;9.562;2023-05-15T04:34:20;12.90;97.00
3416;DHT22;1721;51.238;9.562;2023-05-15T04:36:46;12.90;97.10
3416;DHT22;1721;51.238;9.562;2023-05-15T04:39:12;13.00;97.00
3416;DHT22;1721;51.238;9.562;2023-05-15T04:41:37;13.20;96.90
3416;DHT22;1721;51.238;9.562;2023-05-15T04:44:03;13.20;96.60
3416;DHT22;1721;51.238;9.562;2023-05-15T04:46:29;13.30;96.40
3416;DHT22;1721;51.238;9.562;2023-05-15T04:48:54;13.40;96.10
3416;DHT22;1721;51.238;9.562;2023-05-15T04:51:20;13.40;95.80
3416;DHT22;1721;51.238;9.562;2023-05-15T04:53:45;13.40;96.10
3416;DHT22;1721;51.238;9.562;2023-05-15T04:56:11;13.50;96.30
3416;DHT22;1721;51.238;9.562;2023-05-15T04:58:36;13.70;96.40
3416;DHT22;1721;51.238;9.562;2023-05-15T05:01:02;13.90;96.40
3416;DHT22;1721;51.238;9.562;2023-05-15T05:03:27;14.10;96.20
3416;DHT22;1721;51.238;9.562;2023-05-15T05:05:53;14.20;96.20
3416;DHT22;1721;51.238;9.562;2023-05-15T05:08:19;14.30;95.80
3416;DHT22;1721;51.238;9.562;2023-05-15T05:10:44;14.50;95.60
3416;DHT22;1721;51.238;9.562;2023-05-15T05:13:10;14.70;95.30
3416;DHT22;1721;51.238;9.562;2023-05-15T05:15:35;15.00;95.00
3416;DHT22;1721;51.238;9.562;2023-05-15T05:18:01;15.40;94.40
3416;DHT22;1721;51.238;9.562;2023-05-15T05:20:27;15.50;93.80
3416;DHT22;1721;51.238;9.562;2023-05-15T05:22:52;15.60;93.20
3416;DHT22;1721;51.238;9.562;2023-05-15T05:25:18;15.60;93.00
3416;DHT22;1721;51.238;9.562;2023-05-15T05:27:44;15.60;93.10
3416;DHT22;1721;51.238;9.562;2023-05-15T05:30:10;15.50;93.20
3416;DHT22;1721;51.238;9.562;2023-05-15T05:32:35;15.30;93.60
3416;DHT22;1721;51.238;9.562;2023-05-15T05:35:01;15.20;93.80
3416;DHT22;1721;51.238;9.562;2023-05-15T05:37:28;14.90;93.90
3416;DHT22;1721;51.238;9.562;2023-05-15T05:39:53;14.70;94.70
3416;DHT22;1721;51.238;9.562;2023-05-15T05:42:19;14.60;94.30
3416;DHT22;1721;51.238;9.562;2023-05-15T05:44:44;14.50;94.80
3416;DHT22;1721;51.238;9.562;2023-05-15T05:47:10;14.60;94.70
3416;DHT22;1721;51.238;9.562;2023-05-15T05:49:36;14.70;94.70
3416;DHT22;1721;51.238;9.562;2023-05-15T05:52:06;14.70;94.90
3416;DHT22;1721;51.238;9.562;2023-05-15T05:54:32;14.50;95.40
3416;DHT22;1721;51.238;9.562;2023-05-15T05:56:58;14.80;95.60
3416;DHT22;1721;51.238;9.562;2023-05-15T05:59:23;15.00;95.30
3416;DHT22;1721;51.238;9.562;2023-05-15T06:01:49;14.90;95.20
3416;DHT22;1721;51.238;9.562;2023-05-15T06:04:15;15.10;95.40
3416;DHT22;1721;51.238;9.562;2023-05-15T06:06:40;15.40;95.40
3416;DHT22;1721;51.238;9.562;2023-05-15T06:09:06;15.60;95.60
3416;DHT22;1721;51.238;9.562;2023-05-15T06:11:32;15.90;95.50
3416;DHT22;1721;51.238;9.562;2023-05-15T06:13:57;16.20;94.70
3416;DHT22;1721;51.238;9.562;2023-05-15T06:16:23;16.20;94.30
3416;DHT22;1721;51.238;9.562;2023-05-15T06:18:48;16.40;94.40
3416;DHT22;1721;51.238;9.562;2023-05-15T06:21:14;16.70;94.60
3416;DHT22;1721;51.238;9.562;2023-05-15T06:23:40;17.00;93.90
3416;DHT22;1721;51.238;9.562;2023-05-15T06:26:05;17.40;93.50
3416;DHT22;1721;51.238;9.562;2023-05-15T06:28:31;17.60;93.30
3416;DHT22;1721;51.238;9.562;2023-05-15T06:30:56;17.80;93.20
3416;DHT22;1721;51.238;9.562;2023-05-15T06:33:22;18.00;92.90
3416;DHT22;1721;51.238;9.562;2023-05-15T06:35:47;18.30;92.60
3416;DHT22;1721;51.238;9.562;2023-05-15T06:38:13;18.70;91.80
3416;DHT22;1721;51.238;9.562;2023-05-15T06:40:39;19.10;90.80
3416;DHT22;1721;51.238;9.562;2023-05-15T06:43:04;19.40;90.50
3416;DHT22;1721;51.238;9.562;2023-05-15T06:45:30;19.80;87.90
3416;DHT22;1721;51.238;9.562;2023-05-15T06:47:55;20.00;87.70
3416;DHT22;1721;51.238;9.562;2023-05-15T06:50:21;20.10;87.70
3416;DHT22;1721;51.238;9.562;2023-05-15T06:52:47;20.20;85.90
3416;DHT22;1721;51.238;9.562;2023-05-15T06:55:12;20.20;84.80
3416;DHT22;1721;51.238;9.562;2023-05-15T06:57:38;20.10;83.70
3416;DHT22;1721;51.238;9.562;2023-05-15T07:00:04;20.10;83.70
3416;DHT22;1721;51.238;9.562;2023-05-15T07:02:30;20.20;83.20
3416;DHT22;1721;51.238;9.562;2023-05-15T07:04:55;20.20;83.40
3416;DHT22;1721;51.238;9.562;2023-05-15T07:07:21;20.20;85.80
3416;DHT22;1721;51.238;9.562;2023-05-15T07:09:46;20.30;83.50
3416;DHT22;1721;51.238;9.562;2023-05-15T07:12:14;20.40;83.70
3416;DHT22;1721;51.238;9.562;2023-05-15T07:14:40;20.50;81.80
3416;DHT22;1721;51.238;9.562;2023-05-15T07:17:05;20.50;80.70
3416;DHT22;1721;51.238;9.562;2023-05-15T07:19:31;20.50;81.20
3416;DHT22;1721;51.238;9.562;2023-05-15T07:21:57;20.50;80.00
3416;DHT22;1721;51.238;9.562;2023-05-15T07:24:22;20.60;79.70
3416;DHT22;1721;51.238;9.562;2023-05-15T07:26:48;20.70;79.20
3416;DHT22;1721;51.238;9.562;2023-05-15T07:29:13;20.70;80.90
3416;DHT22;1721;51.238;9.562;2023-05-15T07:31:39;20.70;80.30
3416;DHT22;1721;51.238;9.562;2023-05-15T07:34:06;20.70;81.90
3416;DHT22;1721;51.238;9.562;2023-05-15T07:36:31;20.80;80.40
3416;DHT22;1721;51.238;9.562;2023-05-15T07:38:57;20.90;80.20
3416;DHT22;1721;51.238;9.562;2023-05-15T07:41:23;20.90;79.80
3416;DHT22;1721;51.238;9.562;2023-05-15T07:43:48;20.80;78.60
3416;DHT22;1721;51.238;9.562;2023-05-15T07:46:14;20.80;78.90
3416;DHT22;1721;51.238;9.562;2023-05-15T07:48:39;20.80;80.10
3416;DHT22;1721;51.238;9.562;2023-05-15T07:51:05;20.80;79.50
3416;DHT22;1721;51.238;9.562;2023-05-15T07:53:30;20.40;81.10
3416;DHT22;1721;51.238;9.562;2023-05-15T07:55:57;20.30;81.80
3416;DHT22;1721;51.238;9.562;2023-05-15T07:58:23;20.40;80.40
3416;DHT22;1721;51.238;9.562;2023-05-15T08:00:48;20.50;80.70
3416;DHT22;1721;51.238;9.562;2023-05-15T08:03:14;20.70;81.00
3416;DHT22;1721;51.238;9.562;2023-05-15T08:05:40;20.90;81.30
3416;DHT22;1721;51.238;9.562;2023-05-15T08:08:05;21.00;81.00
3416;DHT22;1721;51.238;9.562;2023-05-15T08:10:31;21.10;80.10
3416;DHT22;1721;51.238;9.562;2023-05-15T08:12:56;21.20;80.20
3416;DHT22;1721;51.238;9.562;2023-05-15T08:15:22;21.30;79.80
3416;DHT22;1721;51.238;9.562;2023-05-15T08:17:48;21.40;79.40
3416;DHT22;1721;51.238;9.562;2023-05-15T08:20:14;21.40;80.90
3416;DHT22;1721;51.238;9.562;2023-05-15T08:22:39;21.60;79.80
3416;DHT22;1721;51.238;9.562;2023-05-15T08:25:06;21.50;80.20
3416;DHT22;1721;51.238;9.562;2023-05-15T08:27:33;21.60;80.10
3416;DHT22;1721;51.238;9.562;2023-05-15T08:29:58;21.70;78.10
3416;DHT22;1721;51.238;9.562;2023-05-15T08:32:24;21.60;78.50
3416;DHT22;1721;51.238;9.562;2023-05-15T08:34:50;21.70;77.50
3416;DHT22;1721;51.238;9.562;2023-05-15T08:37:15;21.70;76.70
3416;DHT22;1721;51.238;9.562;2023-05-15T08:39:41;21.70;77.10
3416;DHT22;1721;51.238;9.562;2023-05-15T08:42:47;21.80;77.00
3416;DHT22;1721;51.238;9.562;2023-05-15T08:45:13;21.70;77.10
3416;DHT22;1721;51.238;9.562;2023-05-15T08:47:40;21.60;77.70
3416;DHT22;1721;51.238;9.562;2023-05-15T08:50:08;21.50;77.40
3416;DHT22;1721;51.238;9.562;2023-05-15T08:52:37;21.60;78.80
3416;DHT22;1721;51.238;9.562;2023-05-15T08:55:06;21.80;78.30
3416;DHT22;1721;51.238;9.562;2023-05-15T08:57:32;21.90;77.10
3416;DHT22;1721;51.238;9.562;2023-05-15T08:59:58;21.60;76.80
3416;DHT22;1721;51.238;9.562;2023-05-15T09:02:24;21.10;76.80
3416;DHT22;1721;51.238;9.562;2023-05-15T09:04:50;20.70;79.30
3416;DHT22;1721;51.238;9.562;2023-05-15T09:07:16;20.50;80.50
3416;DHT22;1721;51.238;9.562;2023-05-15T09:09:43;20.40;80.20
3416;DHT22;1721;51.238;9.562;2023-05-15T09:12:10;20.30;79.90
3416;DHT22;1721;51.238;9.562;2023-05-15T09:14:35;20.10;80.50
3416;DHT22;1721;51.238;9.562;2023-05-15T09:17:01;19.60;81.30
3416;DHT22;1721;51.238;9.562;2023-05-15T09:19:27;19.50;82.80
3416;DHT22;1721;51.238;9.562;2023-05-15T09:21:52;19.40;83.60
3416;DHT22;1721;51.238;9.562;2023-05-15T09:24:25;19.50;84.10
3416;DHT22;1721;51.238;9.562;2023-05-15T09:29:30;19.50;84.30
3416;DHT22;1721;51.238;9.562;2023-05-15T09:31:56;19.70;84.30
3416;DHT22;1721;51.238;9.562;2023-05-15T09:34:29;19.70;84.30
3416;DHT22;1721;51.238;9.562;2023-05-15T09:36:56;19.70;85.70
3416;DHT22;1721;51.238;9.562;2023-05-15T09:39:21;19.70;83.80
3416;DHT22;1721;51.238;9.562;2023-05-15T09:41:47;19.90;83.90
3416;DHT22;1721;51.238;9.562;2023-05-15T09:44:25;20.00;85.40
3416;DHT22;1721;51.238;9.562;2023-05-15T09:46:52;20.10;84.70
3416;DHT22;1721;51.238;9.562;2023-05-15T09:49:18;20.20;86.10
3416;DHT22;1721;51.238;9.562;2023-05-15T09:51:44;20.30;86.70
3416;DHT22;1721;51.238;9.562;2023-05-15T09:54:15;20.30;85.30
3416;DHT22;1721;51.238;9.562;2023-05-15T09:56:45;20.30;85.10
3416;DHT22;1721;51.238;9.562;2023-05-15T09:59:16;20.40;84.40
3416;DHT22;1721;51.238;9.562;2023-05-15T10:01:47;20.20;84.80
3416;DHT22;1721;51.238;9.562;2023-05-15T10:04:13;20.00;87.30
3416;DHT22;1721;51.238;9.562;2023-05-15T10:06:46;19.90;86.20
3416;DHT22;1721;51.238;9.562;2023-05-15T10:09:13;20.00;87.90
3416;DHT22;1721;51.238;9.562;2023-05-15T10:11:41;20.20;85.80
3416;DHT22;1721;51.238;9.562;2023-05-15T10:14:09;20.30;87.30
3416;DHT22;1721;51.238;9.562;2023-05-15T10:16:36;20.30;80.80
3416;DHT22;1721;51.238;9.562;2023-05-15T10:19:03;20.40;83.10
3416;DHT22;1721;51.238;9.562;2023-05-15T10:21:40;20.40;84.40
3416;DHT22;1721;51.238;9.562;2023-05-15T10:24:06;20.50;85.40
3416;DHT22;1721;51.238;9.562;2023-05-15T10:26:37;20.30;79.00
3416;DHT22;1721;51.238;9.562;2023-05-15T10:29:05;20.40;77.20
3416;DHT22;1721;51.238;9.562;2023-05-15T10:31:32;20.20;76.30
3416;DHT22;1721;51.238;9.562;2023-05-15T10:34:00;20.20;76.00
3416;DHT22;1721;51.238;9.562;2023-05-15T10:36:26;20.30;76.50
3416;DHT22;1721;51.238;9.562;2023-05-15T10:38:52;20.40;75.60
3416;DHT22;1721;51.238;9.562;2023-05-15T10:41:20;20.60;73.30
3416;DHT22;1721;51.238;9.562;2023-05-15T10:43:48;20.80;78.00
3416;DHT22;1721;51.238;9.562;2023-05-15T10:46:15;21.00;73.20
3416;DHT22;1721;51.238;9.562;2023-05-15T10:48:41;21.40;75.00
3416;DHT22;1721;51.238;9.562;2023-05-15T10:51:18;21.50;73.00
3416;DHT22;1721;51.238;9.562;2023-05-15T10:53:44;21.60;72.50
3416;DHT22;1721;51.238;9.562;2023-05-15T10:56:16;21.80;67.40
3416;DHT22;1721;51.238;9.562;2023-05-15T10:58:49;21.70;65.20
3416;DHT22;1721;51.238;9.562;2023-05-15T11:01:28;21.90;65.90
3416;DHT22;1721;51.238;9.562;2023-05-15T11:06:36;22.40;68.30
3416;DHT22;1721;51.238;9.562;2023-05-15T11:14:22;22.40;66.10
3416;DHT22;1721;51.238;9.562;2023-05-15T11:19:23;22.40;67.00
3416;DHT22;1721;51.238;9.562;2023-05-15T11:24:49;21.60;71.80
3416;DHT22;1721;51.238;9.562;2023-05-15T11:27:23;21.20;75.00
3416;DHT22;1721;51.238;9.562;2023-05-15T11:30:08;20.80;75.90
3416;DHT22;1721;51.238;9.562;2023-05-15T11:32:54;20.60;72.20
3416;DHT22;1721;51.238;9.562;2023-05-15T11:35:33;20.30;71.50
3416;DHT22;1721;51.238;9.562;2023-05-15T11:38:01;20.10;69.20
3416;DHT22;1721;51.238;9.562;2023-05-15T11:40:32;19.90;67.50
3416;DHT22;1721;51.238;9.562;2023-05-15T11:43:19;19.90;65.40
3416;DHT22;1721;51.238;9.562;2023-05-15T11:45:56;19.90;68.70
3416;DHT22;1721;51.238;9.562;2023-05-15T11:48:30;20.10;67.60
3416;DHT22;1721;51.238;9.562;2023-05-15T11:50:56;20.60;67.40
3416;DHT22;1721;51.238;9.562;2023-05-15T11:53:22;21.10;65.90
3416;DHT22;1721;51.238;9.562;2023-05-15T11:55:51;21.60;65.80
3416;DHT22;1721;51.238;9.562;2023-05-15T11:58:18;21.70;67.20
3416;DHT22;1721;51.238;9.562;2023-05-15T12:00:49;21.80;61.70
3416;DHT22;1721;51.238;9.562;2023-05-15T12:03:22;21.90;62.60
3416;DHT22;1721;51.238;9.562;2023-05-15T12:05:48;22.20;64.80
3416;DHT22;1721;51.238;9.562;2023-05-15T12:08:14;22.10;64.70
3416;DHT22;1721;51.238;9.562;2023-05-15T12:10:43;22.30;64.60
3416;DHT22;1721;51.238;9.562;2023-05-15T12:13:13;22.20;67.00
3416;DHT22;1721;51.238;9.562;2023-05-15T12:15:41;22.20;67.50
3416;DHT22;1721;51.238;9.562;2023-05-15T12:18:07;22.00;68.20
3416;DHT22;1721;51.238;9.562;2023-05-15T12:20:36;21.90;68.80
3416;DHT22;1721;51.238;9.562;2023-05-15T12:23:03;22.10;69.10
3416;DHT22;1721;51.238;9.562;2023-05-15T12:25:31;22.10;67.70
3416;DHT22;1721;51.238;9.562;2023-05-15T12:27:59;22.10;67.70
3416;DHT22;1721;51.238;9.562;2023-05-15T12:30:32;22.20;68.80
3416;DHT22;1721;51.238;9.562;2023-05-15T12:33:05;22.10;67.60
3416;DHT22;1721;51.238;9.562;2023-05-15T12:35:36;22.20;69.20
3416;DHT22;1721;51.238;9.562;2023-05-15T12:38:05;22.30;69.60
3416;DHT22;1721;51.238;9.562;2023-05-15T12:40:35;22.60;70.20
3416;DHT22;1721;51.238;9.562;2023-05-15T12:43:07;23.00;71.00
3416;DHT22;1721;51.238;9.562;2023-05-15T12:45:33;23.30;71.50
3416;DHT22;1721;51.238;9.562;2023-05-15T12:48:01;23.10;70.30
3416;DHT22;1721;51.238;9.562;2023-05-15T12:50:27;23.00;71.10
3416;DHT22;1721;51.238;9.562;2023-05-15T12:53:01;22.90;70.20
3416;DHT22;1721;51.238;9.562;2023-05-15T12:55:35;23.00;70.60
3416;DHT22;1721;51.238;9.562;2023-05-15T12:58:05;22.80;72.40
3416;DHT22;1721;51.238;9.562;2023-05-15T13:00:33;22.30;71.30
3416;DHT22;1721;51.238;9.562;2023-05-15T13:03:00;21.90;71.00
3416;DHT22;1721;51.238;9.562;2023-05-15T13:05:26;21.40;70.30
3416;DHT22;1721;51.238;9.562;2023-05-15T13:07:52;21.00;70.70
3416;DHT22;1721;51.238;9.562;2023-05-15T13:10:22;21.00;68.70
3416;DHT22;1721;51.238;9.562;2023-05-15T13:12:48;20.80;67.10
3416;DHT22;1721;51.238;9.562;2023-05-15T13:15:36;21.10;67.70
3416;DHT22;1721;51.238;9.562;2023-05-15T13:18:22;21.30;65.10
3416;DHT22;1721;51.238;9.562;2023-05-15T13:20:49;21.60;65.30
3416;DHT22;1721;51.238;9.562;2023-05-15T13:23:19;21.80;64.70
3416;DHT22;1721;51.238;9.562;2023-05-15T13:25:45;22.00;63.40
3416;DHT22;1721;51.238;9.562;2023-05-15T13:28:11;22.10;63.50
3416;DHT22;1721;51.238;9.562;2023-05-15T13:30:38;22.30;63.80
3416;DHT22;1721;51.238;9.562;2023-05-15T13:33:06;22.20;60.10
3416;DHT22;1721;51.238;9.562;2023-05-15T13:35:32;22.20;61.70
3416;DHT22;1721;51.238;9.562;2023-05-15T13:37:58;22.10;62.30
3416;DHT22;1721;51.238;9.562;2023-05-15T13:40:24;22.00;62.40
3416;DHT22;1721;51.238;9.562;2023-05-15T13:42:50;21.90;62.90
3416;DHT22;1721;51.238;9.562;2023-05-15T13:45:15;21.60;65.30
3416;DHT22;1721;51.238;9.562;2023-05-15T13:47:42;21.70;66.70
3416;DHT22;1721;51.238;9.562;2023-05-15T13:50:14;21.90;67.90
3416;DHT22;1721;51.238;9.562;2023-05-15T13:52:41;22.10;68.40
3416;DHT22;1721;51.238;9.562;2023-05-15T13:55:07;22.10;70.40
3416;DHT22;1721;51.238;9.562;2023-05-15T13:57:37;21.90;71.50
3416;DHT22;1721;51.238;9.562;2023-05-15T14:00:08;22.00;71.30
3416;DHT22;1721;51.238;9.562;2023-05-15T14:02:36;21.70;72.30
3416;DHT22;1721;51.238;9.562;2023-05-15T14:05:02;22.00;72.10
3416;DHT22;1721;51.238;9.562;2023-05-15T14:07:28;22.10;72.80
3416;DHT22;1721;51.238;9.562;2023-05-15T14:09:54;22.10;68.80
3416;DHT22;1721;51.238;9.562;2023-05-15T14:12:20;22.10;69.60
3416;DHT22;1721;51.238;9.562;2023-05-15T14:14:46;22.20;69.80
3416;DHT22;1721;51.238;9.562;2023-05-15T14:17:13;22.40;68.60
3416;DHT22;1721;51.238;9.562;2023-05-15T14:19:39;22.50;68.10
3416;DHT22;1721;51.238;9.562;2023-05-15T14:22:04;22.50;66.00
3416;DHT22;1721;51.238;9.562;2023-05-15T14:24:30;22.20;62.50
3416;DHT22;1721;51.238;9.562;2023-05-15T14:26:56;22.00;61.80
3416;DHT22;1721;51.238;9.562;2023-05-15T14:29:21;21.50;61.00
3416;DHT22;1721;51.238;9.562;2023-05-15T14:31:47;21.20;62.90
3416;DHT22;1721;51.238;9.562;2023-05-15T14:34:13;21.00;64.20
3416;DHT22;1721;51.238;9.562;2023-05-15T14:36:39;21.00;63.70
3416;DHT22;1721;51.238;9.562;2023-05-15T14:39:05;20.90;64.80
3416;DHT22;1721;51.238;9.562;2023-05-15T14:41:30;20.80;64.70
3416;DHT22;1721;51.238;9.562;2023-05-15T14:43:56;20.60;67.80
3416;DHT22;1721;51.238;9.562;2023-05-15T14:46:21;20.50;71.80
3416;DHT22;1721;51.238;9.562;2023-05-15T14:48:47;20.30;73.20
3416;DHT22;1721;51.238;9.562;2023-05-15T14:51:13;20.20;73.00
3416;DHT22;1721;51.238;9.562;2023-05-15T14:53:39;19.90;72.20
3416;DHT22;1721;51.238;9.562;2023-05-15T14:56:05;19.70;74.40
3416;DHT22;1721;51.238;9.562;2023-05-15T14:58:31;19.60;72.40
3416;DHT22;1721;51.238;9.562;2023-05-15T15:00:56;19.60;71.00
3416;DHT22;1721;51.238;9.562;2023-05-15T15:03:22;19.60;70.40
3416;DHT22;1721;51.238;9.562;2023-05-15T15:05:49;19.60;70.00
3416;DHT22;1721;51.238;9.562;2023-05-15T15:08:16;19.60;69.80
3416;DHT22;1721;51.238;9.562;2023-05-15T15:10:42;19.80;71.80
3416;DHT22;1721;51.238;9.562;2023-05-15T15:13:08;20.00;71.10
3416;DHT22;1721;51.238;9.562;2023-05-15T15:15:36;19.90;70.60
3416;DHT22;1721;51.238;9.562;2023-05-15T15:18:02;19.70;70.90
3416;DHT22;1721;51.238;9.562;2023-05-15T15:20:28;19.80;71.40
3416;DHT22;1721;51.238;9.562;2023-05-15T15:22:54;19.90;71.00
3416;DHT22;1721;51.238;9.562;2023-05-15T15:25:20;20.00;69.70
3416;DHT22;1721;51.238;9.562;2023-05-15T15:27:46;20.00;69.60
3416;DHT22;1721;51.238;9.562;2023-05-15T15:30:13;19.90;70.70
3416;DHT22;1721;51.238;9.562;2023-05-15T15:32:39;19.90;70.70
3416;DHT22;1721;51.238;9.562;2023-05-15T15:35:06;19.90;71.80
3416;DHT22;1721;51.238;9.562;2023-05-15T15:37:33;19.50;71.10
3416;DHT22;1721;51.238;9.562;2023-05-15T15:40:00;19.20;71.30
3416;DHT22;1721;51.238;9.562;2023-05-15T15:42:26;18.80;72.00
3416;DHT22;1721;51.238;9.562;2023-05-15T15:44:55;18.70;72.10
3416;DHT22;1721;51.238;9.562;2023-05-15T15:47:21;18.60;72.60
3416;DHT22;1721;51.238;9.562;2023-05-15T15:49:48;18.50;73.20
3416;DHT22;1721;51.238;9.562;2023-05-15T15:52:14;18.50;72.80
3416;DHT22;1721;51.238;9.562;2023-05-15T15:54:41;18.50;73.40
3416;DHT22;1721;51.238;9.562;2023-05-15T15:57:14;18.20;73.90
3416;DHT22;1721;51.238;9.562;2023-05-15T15:59:40;18.10;75.20
3416;DHT22;1721;51.238;9.562;2023-05-15T16:02:06;18.20;75.20
3416;DHT22;1721;51.238;9.562;2023-05-15T16:04:33;18.10;75.20
3416;DHT22;1721;51.238;9.562;2023-05-15T16:06:58;18.20;75.40
3416;DHT22;1721;51.238;9.562;2023-05-15T16:09:24;18.10;75.90
3416;DHT22;1721;51.238;9.562;2023-05-15T16:11:49;18.00;77.10
3416;DHT22;1721;51.238;9.562;2023-05-15T16:14:17;18.10;76.20
3416;DHT22;1721;51.238;9.562;2023-05-15T16:16:42;18.00;76.70
3416;DHT22;1721;51.238;9.562;2023-05-15T16:19:08;18.00;76.50
3416;DHT22;1721;51.238;9.562;2023-05-15T16:21:33;18.10;76.00
3416;DHT22;1721;51.238;9.562;2023-05-15T16:24:00;18.10;76.70
3416;DHT22;1721;51.238;9.562;2023-05-15T16:26:26;18.20;76.70
3416;DHT22;1721;51.238;9.562;2023-05-15T16:28:51;18.20;76.40